Terminal Aerodrome Forecast
Issued by NWS Jackson, MS

Home | Current Version | Previous Version | Text Only | Print | Product List | Glossary On
Versions: 1 2 3 4 5 6 7 8 9 10 11 12 13
000
FTUS44 KJAN 172300 CCA
TAFGWO
TAF COR
KGWO 172348Z 1800/1824 09004KT P6SM OVC250
     FM181200 05007KT P6SM OVC025
     FM181800 04007KT P6SM BKN040=

USA.gov is the U.S. government's official web portal to all federal, state and local government web resources and services.